Time;durP1;ratioP1;P1;durP2;ratioP2;P2;SDS_P1;SDS_P2;PMS_P1;PMS_P2;Temp;Humidity;BMP_temperature;BMP_pressure;BME280_temperature;BME280_humidity;BME280_pressure;Samples;Min_cycle;Max_cycle;Signal;HPM_P1;HPM_P2
2023/11/19 01:41:07;;;;;;;6.83;4.07;;;-5.30;99.90;;;;;;1910600;72;26928;-90
2023/11/19 02:14:05;;;;;;;3.23;1.87;;;-5.50;99.90;;;;;;1948809;72;26929;-90
2023/11/19 02:16:53;;;;;;;1.53;0.90;;;-5.50;99.90;;;;;;1869375;75;25706;-90
2023/11/19 02:19:41;;;;;;;7.07;1.90;;;-5.50;99.90;;;;;;1909527;73;25177;-90
2023/11/19 02:22:31;;;;;;;2.70;1.67;;;-5.50;99.90;;;;;;1937501;73;25190;-90
2023/11/19 02:40:29;;;;;;;6.93;3.03;;;-5.40;99.90;;;;;;1984498;71;28186;-90
2023/11/19 02:43:18;;;;;;;10.90;3.40;;;-5.30;99.90;;;;;;2044201;69;25317;-90
2023/11/19 03:04:48;;;;;;;6.33;2.53;;;-5.30;99.90;;;;;;1946036;72;26292;-90
2023/11/19 03:11:56;;;;;;;8.50;2.90;;;-5.20;99.90;;;;;;1994411;71;26615;-90
2023/11/19 03:14:47;;;;;;;5.73;1.93;;;-5.20;99.90;;;;;;2027749;69;25222;-90
2023/11/19 03:17:34;;;;;;;7.57;3.03;;;-5.20;99.90;;;;;;1998067;72;25263;-90
2023/11/19 03:20:30;;;;;;;4.90;2.80;;;-5.10;99.90;;;;;;2002147;70;25190;-89
2023/11/19 03:23:19;;;;;;;5.87;1.57;;;-5.20;99.90;;;;;;2003086;70;25913;-91
2023/11/19 03:26:09;;;;;;;4.23;2.30;;;-5.20;99.90;;;;;;2016279;70;25205;-89
2023/11/19 03:28:57;;;;;;;10.00;2.63;;;-5.20;99.90;;;;;;2015061;70;25293;-90
2023/11/19 03:31:46;;;;;;;9.67;3.13;;;-5.30;99.90;;;;;;2013003;70;25184;-90
2023/11/19 03:34:35;;;;;;;6.17;2.80;;;-5.20;99.90;;;;;;2003378;70;25888;-90
2023/11/19 03:37:23;;;;;;;3.63;1.70;;;-5.30;99.90;;;;;;2019991;70;25144;-89
2023/11/19 03:40:14;;;;;;;9.00;2.70;;;-5.50;99.90;;;;;;2013030;69;25206;-90
2023/11/19 03:43:04;;;;;;;4.90;2.37;;;-5.40;99.90;;;;;;1991519;70;25183;-90
2023/11/19 03:49:43;;;;;;;6.27;2.33;;;-5.30;99.90;;;;;;1867092;75;27182;-89
2023/11/19 03:52:32;;;;;;;5.70;2.23;;;-5.40;99.90;;;;;;1773086;80;25248;-89
2023/11/19 03:55:22;;;;;;;5.30;1.90;;;-5.30;99.90;;;;;;1809837;78;25782;-89
2023/11/19 03:58:12;;;;;;;2.43;1.53;;;-5.40;99.90;;;;;;1827703;78;25706;-89
2023/11/19 04:01:00;;;;;;;8.63;2.73;;;-5.40;99.90;;;;;;1827444;78;26638;-88
2023/11/19 04:22:37;;;;;;;3.93;2.47;;;-5.20;99.90;;;;;;1948599;73;26371;-90
2023/11/19 04:25:27;;;;;;;8.17;2.57;;;-5.10;99.90;;;;;;1957514;72;25194;-90
2023/11/19 05:11:38;;;;;;;4.03;2.57;;;-4.90;99.90;;;;;;1894723;73;27092;-90
2023/11/19 05:17:20;;;;;;;2.97;1.67;;;-4.90;99.90;;;;;;1946683;72;27013;-90
2023/11/19 05:20:13;;;;;;;3.27;2.20;;;-5.10;99.90;;;;;;1926504;73;25187;-90
2023/11/19 05:23:01;;;;;;;1.53;1.27;;;-5.10;99.90;;;;;;1851625;77;25674;-89
2023/11/19 05:25:49;;;;;;;1.77;1.10;;;-5.10;99.90;;;;;;1929074;74;25713;-90
2023/11/19 05:28:40;;;;;;;3.00;1.93;;;-5.20;99.90;;;;;;1927587;74;25453;-90
2023/11/19 05:31:28;;;;;;;6.93;2.50;;;-5.20;99.90;;;;;;1912777;74;25238;-90
2023/11/19 05:34:16;;;;;;;5.57;1.63;;;-5.20;99.90;;;;;;1928214;72;25192;-90
2023/11/19 05:37:06;;;;;;;4.17;2.30;;;-5.20;99.90;;;;;;1939733;73;25305;-90
2023/11/19 05:39:55;;;;;;;3.77;1.37;;;-5.20;99.90;;;;;;1925836;73;25238;-89
2023/11/19 05:42:44;;;;;;;3.10;1.37;;;-5.20;99.90;;;;;;1911699;74;25306;-90
2023/11/19 05:55:34;;;;;;;4.27;2.60;;;-5.20;99.90;;;;;;1985536;71;26856;-90
2023/11/19 05:58:28;;;;;;;4.37;1.63;;;-5.10;99.90;;;;;;1903634;74;25180;-89
2023/11/19 06:01:17;;;;;;;7.53;2.70;;;-5.00;99.90;;;;;;1903414;74;25258;-90
2023/11/19 06:17:13;;;;;;;3.20;1.80;;;-5.00;99.90;;;;;;1920673;73;26951;-90
2023/11/19 06:22:43;;;;;;;2.70;1.60;;;-4.80;99.90;;;;;;1965288;71;26972;-90
2023/11/19 06:25:32;;;;;;;3.80;2.03;;;-4.80;99.90;;;;;;1939013;73;25237;-89
2023/11/19 06:28:21;;;;;;;4.37;1.90;;;-4.90;99.90;;;;;;1912128;75;25201;-89
2023/11/19 06:31:11;;;;;;;5.23;2.33;;;-4.90;99.90;;;;;;1934385;73;25220;-89
2023/11/19 06:36:43;;;;;;;1.83;1.33;;;-4.80;99.90;;;;;;1912350;74;27008;-90
2023/11/19 06:39:31;;;;;;;2.53;1.40;;;-4.80;99.90;;;;;;1904400;75;25224;-90
2023/11/19 06:42:19;;;;;;;2.77;1.17;;;-4.80;99.90;;;;;;1880447;75;25311;-90
2023/11/19 06:45:10;;;;;;;2.83;1.83;;;-4.80;99.90;;;;;;1893973;75;25812;-90
2023/11/19 06:50:45;;;;;;;4.40;1.47;;;-4.70;99.90;;;;;;1937329;72;27754;-89
2023/11/19 06:53:34;;;;;;;1.77;1.50;;;-4.70;99.90;;;;;;1897192;75;25232;-89
2023/11/19 06:56:27;;;;;;;1.67;1.20;;;-4.70;99.90;;;;;;1919056;74;25212;-89
2023/11/19 06:59:16;;;;;;;15.17;2.20;;;-4.70;99.90;;;;;;1883931;75;25257;-89
2023/11/19 07:02:05;;;;;;;1.57;1.23;;;-4.70;99.90;;;;;;1875965;75;25776;-89
2023/11/19 07:04:54;;;;;;;0.90;0.90;;;-4.70;99.90;;;;;;1881313;74;25223;-89
2023/11/19 07:07:43;;;;;;;1.80;1.23;;;-4.60;99.90;;;;;;1886781;74;25705;-89
2023/11/19 07:24:41;;;;;;;5.20;3.00;;;-4.60;99.90;;;;;;1935038;72;27190;-89
2023/11/19 07:43:07;;;;;;;8.10;3.97;;;-4.40;99.90;;;;;;1985978;71;26306;-90
2023/11/19 08:06:02;;;;;;;7.00;3.10;;;-4.20;99.90;;;;;;2045798;69;27270;-90
2023/11/19 08:08:51;;;;;;;5.53;2.30;;;-4.30;99.90;;;;;;1969949;72;25301;-90
2023/11/19 08:11:41;;;;;;;4.47;2.40;;;-4.30;99.90;;;;;;1950377;72;25306;-90
2023/11/19 08:14:30;;;;;;;3.17;1.80;;;-4.40;99.90;;;;;;1950141;72;25316;-92
2023/11/19 08:17:18;;;;;;;4.63;2.47;;;-4.30;99.90;;;;;;1953559;72;25698;-90
2023/11/19 08:36:43;;;;;;;6.77;2.57;;;-4.30;99.90;;;;;;1948778;72;27227;-89
2023/11/19 08:39:32;;;;;;;0.97;0.73;;;-4.30;99.90;;;;;;1923869;73;25232;-89
2023/11/19 08:42:21;;;;;;;2.77;1.70;;;-4.20;99.90;;;;;;1917679;73;25270;-89
2023/11/19 08:45:11;;;;;;;3.50;2.30;;;-4.20;99.90;;;;;;1911904;73;25319;-89
2023/11/19 08:50:44;;;;;;;5.90;2.53;;;-4.10;99.90;;;;;;1906152;74;27049;-90
2023/11/19 08:53:33;;;;;;;1.40;1.27;;;-4.10;99.90;;;;;;1875768;76;25213;-94
2023/11/19 08:59:45;;;;;;;7.73;3.07;;;-4.00;99.90;;;;;;2069840;68;27035;-90
2023/11/19 09:02:34;;;;;;;1.93;1.43;;;-4.00;99.90;;;;;;2008951;71;25301;-90
2023/11/19 09:05:23;;;;;;;5.77;2.90;;;-3.80;99.90;;;;;;2003790;71;25248;-90
2023/11/19 09:08:12;;;;;;;5.33;3.03;;;-3.90;99.90;;;;;;2000298;69;25202;-90
2023/11/19 09:11:01;;;;;;;3.10;2.20;;;-3.80;99.90;;;;;;2023368;70;25711;-90
2023/11/19 09:13:49;;;;;;;9.27;4.03;;;-3.70;99.90;;;;;;2020908;70;25723;-89
2023/11/19 09:16:38;;;;;;;6.50;2.90;;;-3.70;99.90;;;;;;1991478;71;25187;-90
2023/11/19 09:19:27;;;;;;;5.43;2.93;;;-3.60;99.90;;;;;;1998956;69;25588;-89
2023/11/19 09:22:16;;;;;;;2.20;1.47;;;-3.50;99.90;;;;;;2035554;69;25245;-90
2023/11/19 09:25:06;;;;;;;6.17;3.03;;;-3.50;99.90;;;;;;2004660;69;25231;-89
2023/11/19 09:27:55;;;;;;;1.73;1.63;;;-3.50;99.90;;;;;;2008689;71;25464;-89
2023/11/19 09:30:43;;;;;;;8.73;3.77;;;-3.50;99.90;;;;;;1990765;71;25258;-89
2023/11/19 09:33:31;;;;;;;11.47;4.00;;;-3.50;99.90;;;;;;1998254;69;25195;-90
2023/11/19 09:36:21;;;;;;;8.70;3.87;;;-3.40;99.90;;;;;;1992985;69;25294;-89
2023/11/19 09:39:09;;;;;;;5.50;3.60;;;-3.30;99.90;;;;;;2004670;70;25294;-90
2023/11/19 09:41:58;;;;;;;8.50;2.93;;;-3.30;99.90;;;;;;2003710;70;25266;-89
2023/11/19 09:44:53;;;;;;;9.03;3.83;;;-3.30;99.90;;;;;;2051940;69;25252;-90
2023/11/19 09:47:42;;;;;;;12.73;4.60;;;-3.20;99.90;;;;;;2046083;69;25201;-90
2023/11/19 09:53:41;;;;;;;3.93;2.30;;;-3.20;99.90;;;;;;1944940;72;28222;-91
2023/11/19 10:22:38;;;;;;;10.37;5.00;;;-2.90;99.90;;;;;;1989956;71;26935;-89
2023/11/19 10:25:29;;;;;;;9.23;4.30;;;-2.90;99.90;;;;;;1897223;75;25753;-89
2023/11/19 10:28:18;;;;;;;5.33;3.27;;;-2.90;99.90;;;;;;1904912;75;25210;-89
2023/11/19 10:31:07;;;;;;;6.67;2.73;;;-3.00;99.90;;;;;;1927019;73;25140;-89
2023/11/19 10:33:56;;;;;;;7.93;3.67;;;-2.90;99.90;;;;;;1932080;73;25140;-89
2023/11/19 10:36:45;;;;;;;7.47;3.80;;;-2.80;99.90;;;;;;1932113;73;25230;-89
2023/11/19 10:39:56;;;;;;;9.97;3.43;;;-2.80;99.90;;;;;;1914112;74;25704;-89
2023/11/19 10:42:45;;;;;;;9.03;3.47;;;-2.70;99.90;;;;;;1915961;74;25224;-89
2023/11/19 10:45:34;;;;;;;4.50;2.87;;;-2.60;99.90;;;;;;1914934;74;25185;-89
2023/11/19 10:48:25;;;;;;;3.93;2.40;;;-2.60;99.90;;;;;;1930779;74;25242;-90
2023/11/19 10:51:16;;;;;;;6.30;3.40;;;-2.60;99.90;;;;;;1940752;74;25253;-90
2023/11/19 10:54:06;;;;;;;7.73;3.60;;;-2.50;99.90;;;;;;1923631;74;25212;-90
2023/11/19 11:13:49;;;;;;;6.87;3.50;;;-2.70;99.90;;;;;;1956733;72;26973;-90
2023/11/19 11:16:38;;;;;;;8.13;3.80;;;-2.80;99.90;;;;;;1927434;73;25206;-92
2023/11/19 11:19:27;;;;;;;9.37;2.60;;;-2.80;99.90;;;;;;1949488;73;25753;-90
2023/11/19 11:39:49;;;;;;;9.10;3.63;;;-2.40;99.90;;;;;;1942458;72;27339;-90
2023/11/19 11:42:39;;;;;;;6.43;3.03;;;-2.60;99.90;;;;;;1915788;73;25278;-90
2023/11/19 11:45:42;;;;;;;7.07;3.43;;;-2.70;99.90;;;;;;1935069;73;25320;-91
2023/11/19 11:48:32;;;;;;;6.33;3.40;;;-2.70;99.90;;;;;;1930623;73;25225;-91
2023/11/19 11:54:10;;;;;;;9.00;3.47;;;-2.60;99.90;;;;;;1956105;72;26912;-90
2023/11/19 11:57:08;;;;;;;4.90;2.63;;;-2.60;99.90;;;;;;1932294;73;25198;-90
2023/11/19 11:59:56;;;;;;;8.33;4.00;;;-2.60;99.90;;;;;;1887073;75;25673;-90
2023/11/19 12:02:46;;;;;;;17.03;4.30;;;-2.70;99.90;;;;;;1901150;75;25228;-90
2023/11/19 12:05:36;;;;;;;6.43;2.77;;;-2.60;99.90;;;;;;1901768;75;25357;-90
2023/11/19 12:08:32;;;;;;;7.27;4.20;;;-2.60;99.90;;;;;;1955148;72;25169;-89
2023/11/19 12:11:21;;;;;;;10.30;3.90;;;-2.60;99.90;;;;;;1948588;72;25300;-91
2023/11/19 12:27:41;;;;;;;6.33;3.60;;;-2.70;99.90;;;;;;1865823;76;26668;-91
2023/11/19 12:42:12;;;;;;;12.93;5.43;;;-2.60;99.90;;;;;;2043410;70;28079;-90
2023/11/19 12:45:01;;;;;;;14.40;5.17;;;-2.50;99.90;;;;;;2005373;70;25266;-90
2023/11/19 12:50:55;;;;;;;8.00;3.60;;;-2.60;99.90;;;;;;1960367;72;26917;-89
2023/11/19 12:53:52;;;;;;;11.43;3.70;;;-2.60;99.90;;;;;;1929345;73;25256;-89
2023/11/19 12:56:41;;;;;;;6.57;3.10;;;-2.60;99.90;;;;;;1926554;73;25281;-89
2023/11/19 12:59:32;;;;;;;10.03;2.73;;;-2.70;99.90;;;;;;1939069;72;25380;-90
2023/11/19 13:02:21;;;;;;;11.13;3.20;;;-2.60;99.90;;;;;;1926901;73;25712;-89
2023/11/19 13:05:27;;;;;;;9.90;4.77;;;-2.60;99.90;;;;;;1917934;73;25375;-90
2023/11/19 13:23:43;;;;;;;13.60;4.23;;;-2.80;99.90;;;;;;1927252;74;26311;-90
2023/11/19 14:06:20;;;;;;;12.90;4.53;;;-2.70;99.90;;;;;;1930353;73;26377;-90
2023/11/19 14:25:16;;;;;;;8.87;4.30;;;-2.80;99.90;;;;;;1931004;72;27120;-90
2023/11/19 14:30:57;;;;;;;8.33;3.80;;;-2.70;99.90;;;;;;1945525;72;26980;-90
2023/11/19 14:33:46;;;;;;;8.87;4.07;;;-2.70;99.90;;;;;;1941083;73;25253;-90
2023/11/19 14:36:34;;;;;;;9.03;3.80;;;-2.80;99.90;;;;;;1937685;73;25154;-90
2023/11/19 14:39:23;;;;;;;11.17;3.80;;;-2.70;99.90;;;;;;1896555;75;25250;-90
2023/11/19 14:42:11;;;;;;;6.40;3.17;;;-2.70;99.90;;;;;;1875778;75;25267;-91
2023/11/19 14:45:00;;;;;;;13.07;3.53;;;-2.80;99.90;;;;;;1845442;77;25747;-91
2023/11/19 14:51:35;;;;;;;17.73;4.93;;;-2.80;99.90;;;;;;2078352;68;25908;-90
2023/11/19 14:54:25;;;;;;;8.90;4.57;;;-2.80;99.90;;;;;;1993229;71;25746;-91
2023/11/19 14:57:14;;;;;;;8.17;4.73;;;-2.60;99.90;;;;;;2003592;71;25295;-90
2023/11/19 15:00:12;;;;;;;26.67;9.93;;;-2.60;99.90;;;;;;2001406;71;25258;-90
2023/11/19 15:02:56;;;;;;;10.80;4.50;;;-2.50;99.90;;;;;;2012171;70;25243;-89
2023/11/19 15:05:45;;;;;;;12.63;5.27;;;-2.40;99.90;;;;;;1998060;70;25201;-89
2023/11/19 15:08:34;;;;;;;13.10;4.80;;;-2.50;99.90;;;;;;2005229;70;25307;-89
2023/11/19 15:14:09;;;;;;;13.00;5.60;;;-2.30;99.90;;;;;;1937591;72;27049;-91
2023/11/19 15:16:58;;;;;;;17.07;5.57;;;-2.20;99.90;;;;;;1914638;74;25352;-90
2023/11/19 15:19:47;;;;;;;17.97;5.70;;;-2.20;99.90;;;;;;1910700;74;25261;-90
2023/11/19 15:22:36;;;;;;;8.53;4.33;;;-2.10;99.90;;;;;;1839479;77;25274;-90
2023/11/19 15:25:25;;;;;;;16.47;6.20;;;-2.10;99.90;;;;;;1876844;75;25271;-91
2023/11/19 15:28:32;;;;;;;20.07;6.33;;;-2.00;99.90;;;;;;1875672;75;25243;-90
2023/11/19 15:31:21;;;;;;;18.20;6.43;;;-2.00;99.90;;;;;;1837612;77;25231;-91
2023/11/19 15:34:10;;;;;;;16.13;6.57;;;-1.90;99.90;;;;;;1885464;75;25261;-91
2023/11/19 15:37:01;;;;;;;22.70;8.00;;;-1.90;99.90;;;;;;1886483;74;25292;-91
2023/11/19 15:39:59;;;;;;;19.83;8.40;;;-1.90;99.90;;;;;;1879016;75;25220;-91
2023/11/19 15:42:48;;;;;;;22.87;8.30;;;-2.00;99.90;;;;;;1881351;74;25874;-90
2023/11/19 16:15:50;;;;;;;24.70;9.00;;;-1.30;99.90;;;;;;1953529;71;26912;-90
2023/11/19 16:18:38;;;;;;;16.80;7.53;;;-0.90;99.90;;;;;;1981765;71;25233;-91
2023/11/19 16:21:27;;;;;;;17.90;7.07;;;-0.90;99.90;;;;;;1976181;71;25253;-90
2023/11/19 16:24:18;;;;;;;6.27;2.93;;;-1.00;99.90;;;;;;1976961;71;25693;-91
2023/11/19 16:27:08;;;;;;;12.80;3.00;;;-0.90;99.90;;;;;;1986923;71;25599;-90
2023/11/19 16:29:57;;;;;;;5.50;3.23;;;-1.00;99.90;;;;;;1989242;70;25180;-90
2023/11/19 16:32:56;;;;;;;11.80;5.37;;;-1.00;99.90;;;;;;2012709;71;25757;-91
2023/11/19 16:35:45;;;;;;;11.33;5.57;;;-1.00;99.90;;;;;;1983999;71;25254;-91
2023/11/19 16:38:33;;;;;;;12.23;4.50;;;-1.00;99.90;;;;;;1986397;71;25303;-90
2023/11/19 16:55:20;;;;;;;22.20;8.80;;;-1.10;99.90;;;;;;1927938;73;27209;-88
2023/11/19 17:00:49;;;;;;;8.13;4.50;;;-1.10;99.90;;;;;;1944389;72;27091;-88
2023/11/19 17:03:38;;;;;;;6.80;3.50;;;-1.10;99.90;;;;;;1933884;73;25248;-87
2023/11/19 17:06:26;;;;;;;11.20;5.23;;;-1.10;99.90;;;;;;1932292;73;25330;-88
2023/11/19 17:09:15;;;;;;;15.27;6.27;;;-1.10;99.90;;;;;;1926405;72;25322;-86
2023/11/19 17:12:04;;;;;;;16.67;6.37;;;-1.20;99.90;;;;;;1925674;73;25312;-88
2023/11/19 17:15:01;;;;;;;14.67;5.90;;;-1.10;99.90;;;;;;1926475;73;25209;-87
2023/11/19 17:17:43;;;;;;;13.97;6.03;;;-1.10;99.90;;;;;;1926469;72;25665;-87
2023/11/19 17:20:32;;;;;;;36.90;11.13;;;-1.10;99.90;;;;;;1938762;72;25213;-88
2023/11/19 17:26:07;;;;;;;16.10;6.20;;;-1.10;99.90;;;;;;1949798;72;26974;-88
2023/11/19 17:28:57;;;;;;;14.40;5.80;;;-1.10;99.90;;;;;;1928870;72;25362;-88
2023/11/19 17:31:46;;;;;;;10.17;3.63;;;-1.10;99.90;;;;;;1938440;72;25205;-88
2023/11/19 17:34:35;;;;;;;11.03;4.13;;;-1.10;99.90;;;;;;1922170;72;25352;-88
2023/11/19 17:37:24;;;;;;;14.07;6.03;;;-1.20;99.90;;;;;;1932833;73;25353;-87
2023/11/19 17:40:16;;;;;;;15.40;5.97;;;-1.20;99.90;;;;;;1930092;73;25225;-88
2023/11/19 17:43:03;;;;;;;28.27;9.67;;;-1.20;99.90;;;;;;1892478;75;25403;-88
2023/11/19 17:45:56;;;;;;;4.97;2.97;;;-1.20;99.90;;;;;;1829590;76;25244;-88
2023/11/19 17:48:43;;;;;;;23.23;8.07;;;-1.20;99.90;;;;;;1872367;75;25259;-88
2023/11/19 17:51:31;;;;;;;18.23;6.93;;;-1.30;99.90;;;;;;1835363;76;25282;-87
2023/11/19 17:54:20;;;;;;;15.83;6.70;;;-1.30;99.90;;;;;;1826590;77;25969;-88
2023/11/19 17:59:50;;;;;;;10.90;5.10;;;-1.30;99.90;;;;;;1945245;72;27103;-88
2023/11/19 18:05:21;;;;;;;5.33;2.80;;;-1.40;99.90;;;;;;1922015;72;27156;-88
2023/11/19 18:08:09;;;;;;;14.73;6.77;;;-1.40;99.90;;;;;;1897972;75;25254;-88
2023/11/19 18:10:58;;;;;;;7.40;4.47;;;-1.40;99.90;;;;;;1853087;76;25306;-87
2023/11/19 18:13:49;;;;;;;15.40;5.03;;;-1.30;99.90;;;;;;1834104;77;25246;-88
2023/11/19 18:16:37;;;;;;;12.97;5.90;;;-1.40;99.90;;;;;;1890151;74;25204;-88
2023/11/19 18:19:26;;;;;;;5.60;3.03;;;-1.40;99.90;;;;;;1897373;75;25648;-88
2023/11/19 18:22:15;;;;;;;15.40;6.30;;;-1.40;99.90;;;;;;1876170;76;25734;-88
2023/11/19 18:27:43;;;;;;;15.00;6.70;;;-1.50;99.90;;;;;;1939617;72;27066;-88
2023/11/19 18:30:31;;;;;;;10.37;4.30;;;-1.50;99.90;;;;;;1900142;75;25231;-88
2023/11/19 18:33:19;;;;;;;7.00;2.50;;;-1.50;99.90;;;;;;1899745;75;25703;-88
2023/11/19 18:36:11;;;;;;;14.80;6.27;;;-1.40;99.90;;;;;;1895714;75;25197;-88
2023/11/19 18:41:41;;;;;;;11.07;4.93;;;-1.50;99.90;;;;;;1946155;72;27863;-88
2023/11/19 18:47:14;;;;;;;17.57;8.03;;;-1.50;99.90;;;;;;1935768;72;27588;-88
2023/11/19 18:50:03;;;;;;;7.93;3.87;;;-1.60;99.90;;;;;;1893415;74;25184;-88
2023/11/19 18:52:51;;;;;;;13.63;5.40;;;-1.50;99.90;;;;;;1893659;73;25232;-88
2023/11/19 18:55:40;;;;;;;8.00;3.63;;;-1.50;99.90;;;;;;1889708;73;25794;-87
2023/11/19 18:58:28;;;;;;;9.67;3.93;;;-1.50;99.90;;;;;;1902847;73;25254;-87
2023/11/19 19:01:17;;;;;;;5.67;2.17;;;-1.50;99.90;;;;;;1897628;74;25712;-87
2023/11/19 19:04:07;;;;;;;16.17;6.93;;;-1.50;99.90;;;;;;1897627;74;25247;-87
2023/11/19 19:06:56;;;;;;;20.17;7.37;;;-1.60;99.90;;;;;;1879006;75;25196;-87
2023/11/19 19:09:45;;;;;;;15.57;6.57;;;-1.60;99.90;;;;;;1875104;74;25179;-87
2023/11/19 19:12:34;;;;;;;13.40;5.27;;;-1.50;99.90;;;;;;1895827;73;25647;-87
2023/11/19 19:15:25;;;;;;;13.30;5.30;;;-1.50;99.90;;;;;;1882089;73;25238;-87
2023/11/19 19:20:52;;;;;;;35.33;9.77;;;-1.60;99.90;;;;;;1939221;72;27105;-89
2023/11/19 19:23:41;;;;;;;33.63;10.60;;;-1.50;99.90;;;;;;1936992;73;25258;-88
2023/11/19 19:26:30;;;;;;;16.87;7.53;;;-1.50;99.90;;;;;;1922151;73;25697;-88
2023/11/19 19:29:19;;;;;;;18.80;7.10;;;-1.50;99.90;;;;;;1932471;73;25170;-88
2023/11/19 19:32:08;;;;;;;18.77;7.57;;;-1.50;99.90;;;;;;1930680;73;25481;-88
2023/11/19 19:34:57;;;;;;;7.03;3.47;;;-1.40;99.90;;;;;;1930661;73;25221;-88
2023/11/19 19:37:46;;;;;;;13.33;7.10;;;-1.40;99.90;;;;;;1920955;73;25163;-88
2023/11/19 19:40:35;;;;;;;16.03;6.63;;;-1.40;99.90;;;;;;1926565;73;25227;-88
2023/11/19 19:43:24;;;;;;;9.13;4.60;;;-1.40;99.90;;;;;;1905631;73;25388;-88
2023/11/19 19:46:13;;;;;;;11.57;4.37;;;-1.40;99.90;;;;;;1909562;73;25274;-88
2023/11/19 19:49:02;;;;;;;10.57;5.13;;;-1.40;99.90;;;;;;1898712;73;25147;-88
2023/11/19 19:54:34;;;;;;;13.27;6.30;;;-1.50;99.90;;;;;;1931997;72;27081;-88
2023/11/19 19:57:22;;;;;;;19.10;7.13;;;-1.50;99.90;;;;;;1904931;75;25258;-88
2023/11/19 20:00:13;;;;;;;12.13;4.80;;;-1.50;99.90;;;;;;1896505;75;25180;-88
2023/11/19 20:05:44;;;;;;;11.60;5.30;;;-1.50;99.90;;;;;;1935379;72;26984;-86
2023/11/19 20:08:33;;;;;;;9.53;3.37;;;-1.50;99.90;;;;;;1872077;75;25201;-86
2023/11/19 20:11:21;;;;;;;7.60;3.43;;;-1.50;99.90;;;;;;1846702;76;25359;-88
2023/11/19 20:14:11;;;;;;;6.97;3.10;;;-1.50;99.90;;;;;;1891164;75;25223;-87
2023/11/19 20:16:59;;;;;;;6.50;3.70;;;-1.50;99.90;;;;;;1852445;76;25248;-87
2023/11/19 20:19:47;;;;;;;12.60;5.97;;;-1.60;99.90;;;;;;1838726;76;25197;-87
2023/11/19 20:22:36;;;;;;;9.90;4.47;;;-1.60;99.90;;;;;;1858850;76;25259;-87
2023/11/19 20:25:25;;;;;;;16.80;7.13;;;-1.50;99.90;;;;;;1827903;78;25353;-88
2023/11/19 20:28:14;;;;;;;10.83;4.47;;;-1.60;99.90;;;;;;1875276;76;25252;-87
2023/11/19 20:31:03;;;;;;;10.67;4.73;;;-1.50;99.90;;;;;;1875022;76;25227;-87
2023/11/19 20:33:51;;;;;;;12.63;6.37;;;-1.50;99.90;;;;;;1839458;77;25185;-87
2023/11/19 20:36:41;;;;;;;14.23;6.23;;;-1.60;99.90;;;;;;1851002;76;25305;-87
2023/11/19 20:42:13;;;;;;;14.30;6.33;;;-1.50;99.90;;;;;;1934063;72;27188;-88
2023/11/19 20:47:44;;;;;;;16.53;6.80;;;-1.50;99.90;;;;;;1943046;72;27184;-88
2023/11/19 20:50:34;;;;;;;13.17;5.87;;;-1.50;99.90;;;;;;1893477;75;25170;-88
2023/11/19 20:53:23;;;;;;;14.27;6.80;;;-1.60;99.90;;;;;;1896028;75;25621;-88
2023/11/19 20:56:11;;;;;;;17.60;7.10;;;-1.60;99.90;;;;;;1896964;75;25279;-88
2023/11/19 20:59:00;;;;;;;15.23;6.43;;;-1.70;99.90;;;;;;1907690;75;25701;-88
2023/11/19 21:01:49;;;;;;;12.03;5.87;;;-1.60;99.90;;;;;;1896186;74;25267;-88
2023/11/19 21:04:38;;;;;;;15.17;6.20;;;-1.60;99.90;;;;;;1898578;75;25303;-88
2023/11/19 21:07:27;;;;;;;15.57;5.80;;;-1.50;99.90;;;;;;1891025;75;25362;-88
2023/11/19 21:10:15;;;;;;;12.03;5.77;;;-1.40;99.90;;;;;;1893464;75;25235;-87
2023/11/19 21:13:04;;;;;;;11.57;5.20;;;-1.50;99.90;;;;;;1900582;75;25137;-87
2023/11/19 21:15:54;;;;;;;14.43;6.53;;;-1.50;99.90;;;;;;1899379;75;25263;-88
2023/11/19 21:18:43;;;;;;;18.30;7.40;;;-1.50;99.90;;;;;;1908332;75;25783;-87
2023/11/19 21:21:31;;;;;;;12.20;6.23;;;-1.50;99.90;;;;;;1890211;75;25258;-87
2023/11/19 21:27:00;;;;;;;14.93;6.23;;;-1.50;99.90;;;;;;1945699;72;27045;-89
2023/11/19 21:29:49;;;;;;;16.20;7.00;;;-1.50;99.90;;;;;;1932876;73;25388;-87
2023/11/19 21:32:37;;;;;;;15.07;6.37;;;-1.50;99.90;;;;;;1939997;73;25868;-88
2023/11/19 21:35:25;;;;;;;17.73;6.07;;;-1.50;99.90;;;;;;1921014;73;25171;-88
2023/11/19 21:38:14;;;;;;;16.37;6.50;;;-1.50;99.90;;;;;;1922790;73;25285;-88
2023/11/19 21:41:04;;;;;;;14.67;5.47;;;-1.40;99.90;;;;;;1925382;73;25620;-88
2023/11/19 21:43:53;;;;;;;14.77;5.80;;;-1.40;99.90;;;;;;1916019;73;25660;-87
2023/11/19 21:46:41;;;;;;;13.30;6.10;;;-1.50;99.90;;;;;;1904085;73;25273;-88
2023/11/19 21:49:29;;;;;;;17.63;7.23;;;-1.60;99.90;;;;;;1914630;73;25207;-88
2023/11/19 21:52:18;;;;;;;15.07;7.13;;;-1.60;99.90;;;;;;1899321;73;25182;-87
2023/11/19 21:55:09;;;;;;;13.80;6.20;;;-1.60;99.90;;;;;;1933175;73;26376;-87
2023/11/19 21:57:58;;;;;;;16.53;6.63;;;-1.60;99.90;;;;;;1913365;73;25220;-87
2023/11/19 22:00:46;;;;;;;14.67;6.00;;;-1.60;99.90;;;;;;1920865;73;25312;-87
2023/11/19 22:06:20;;;;;;;15.73;6.50;;;-1.60;99.90;;;;;;1957026;72;27077;-88
2023/11/19 22:09:09;;;;;;;16.00;7.00;;;-1.50;99.90;;;;;;1882225;75;25697;-87
2023/11/19 22:11:58;;;;;;;13.47;6.53;;;-1.50;99.90;;;;;;1884069;75;25180;-87
2023/11/19 22:14:47;;;;;;;14.80;5.67;;;-1.70;99.90;;;;;;1896838;75;25242;-87
2023/11/19 22:17:37;;;;;;;14.83;6.43;;;-1.80;99.90;;;;;;1900397;75;25259;-87
2023/11/19 22:20:28;;;;;;;12.00;5.70;;;-1.80;99.90;;;;;;1899977;75;25314;-87
2023/11/19 22:23:15;;;;;;;13.17;5.93;;;-1.70;99.90;;;;;;1899851;75;25668;-87
2023/11/19 22:26:05;;;;;;;14.10;5.53;;;-1.60;99.90;;;;;;1903745;75;25688;-87
2023/11/19 22:28:54;;;;;;;8.60;4.07;;;-1.70;99.90;;;;;;1903211;73;25245;-87
2023/11/19 22:31:42;;;;;;;12.60;5.70;;;-1.80;99.90;;;;;;1903994;73;25326;-87
2023/11/19 22:34:30;;;;;;;11.40;5.53;;;-1.80;99.90;;;;;;1902765;73;25224;-87
2023/11/19 22:37:19;;;;;;;13.37;6.07;;;-1.70;99.90;;;;;;1888410;73;25170;-87
2023/11/19 22:40:11;;;;;;;11.27;4.53;;;-1.80;99.90;;;;;;1885032;75;25860;-88
2023/11/19 22:43:00;;;;;;;9.53;4.20;;;-1.80;99.90;;;;;;1920987;73;25262;-87
2023/11/19 22:48:30;;;;;;;12.43;5.47;;;-1.70;99.90;;;;;;1946141;72;27048;-87
2023/11/19 22:51:20;;;;;;;11.47;5.67;;;-1.80;99.90;;;;;;1902139;74;25216;-87
2023/11/19 22:54:09;;;;;;;11.27;5.33;;;-1.70;99.90;;;;;;1913645;75;25342;-87
2023/11/19 22:56:57;;;;;;;14.07;5.03;;;-1.80;99.90;;;;;;1910866;74;25665;-88
2023/11/19 22:59:46;;;;;;;11.30;4.97;;;-1.90;99.90;;;;;;1904855;74;25222;-87
2023/11/19 23:02:35;;;;;;;14.20;5.20;;;-1.80;99.90;;;;;;1905155;74;25226;-87
2023/11/19 23:05:27;;;;;;;10.27;4.87;;;-1.90;99.90;;;;;;1900757;74;25303;-87
2023/11/19 23:08:14;;;;;;;11.10;5.23;;;-1.90;99.90;;;;;;1909646;74;25762;-88
2023/11/19 23:11:02;;;;;;;9.60;4.37;;;-1.80;99.90;;;;;;1907879;75;25635;-87
2023/11/19 23:13:50;;;;;;;18.20;5.50;;;-1.90;99.90;;;;;;1913815;75;26053;-87
2023/11/19 23:16:40;;;;;;;8.80;4.27;;;-1.90;99.90;;;;;;1892146;74;25780;-87
2023/11/19 23:19:29;;;;;;;11.90;4.53;;;-1.90;99.90;;;;;;1895166;75;25295;-87
2023/11/19 23:22:17;;;;;;;10.67;5.00;;;-1.80;99.90;;;;;;1907604;74;25350;-87
2023/11/19 23:25:07;;;;;;;12.97;5.43;;;-1.90;99.90;;;;;;1910990;75;25308;-87
2023/11/19 23:27:56;;;;;;;13.40;5.23;;;-2.00;99.90;;;;;;1908369;74;25273;-88
2023/11/19 23:30:45;;;;;;;10.90;4.83;;;-1.90;99.90;;;;;;1908773;74;25282;-87
2023/11/19 23:33:34;;;;;;;9.07;4.47;;;-1.80;99.90;;;;;;1908923;74;25285;-87
2023/11/19 23:36:22;;;;;;;9.10;3.97;;;-2.00;99.90;;;;;;1905018;75;25442;-87
2023/11/19 23:39:12;;;;;;;14.27;5.50;;;-2.00;99.90;;;;;;1910623;75;25298;-88
2023/11/19 23:42:01;;;;;;;12.40;4.87;;;-1.90;99.90;;;;;;1909156;74;25805;-87
2023/11/19 23:44:50;;;;;;;11.03;4.90;;;-1.90;99.90;;;;;;1908119;74;25340;-87
2023/11/19 23:47:39;;;;;;;7.83;4.10;;;-1.90;99.90;;;;;;1909551;74;25294;-88
2023/11/19 23:50:28;;;;;;;11.70;5.23;;;-2.00;99.90;;;;;;1906365;74;25760;-87
2023/11/19 23:53:17;;;;;;;8.90;4.90;;;-1.90;99.90;;;;;;1912812;74;25773;-88
2023/11/19 23:56:08;;;;;;;10.13;4.70;;;-2.00;99.90;;;;;;1919795;74;25287;-87
2023/11/19 23:58:57;;;;;;;12.27;4.90;;;-2.00;99.90;;;;;;1918317;74;25253;-87
